createdAt,value
2022-11-10T00:04:44.038Z,85.4
2022-11-10T00:09:48.575Z,85.6
2022-11-10T00:14:53.144Z,85.7
2022-11-10T00:19:57.671Z,86
2022-11-10T00:25:01.159Z,86.2
2022-11-10T00:30:05.720Z,86.3
2022-11-10T00:35:10.252Z,86.3
2022-11-10T00:40:14.938Z,86.8
2022-11-10T00:45:18.462Z,86.8
2022-11-10T00:50:23.023Z,86.8
2022-11-10T00:55:27.568Z,87
2022-11-10T01:00:32.056Z,87.1
2022-11-10T01:05:35.642Z,87.3
2022-11-10T01:10:40.157Z,87.5
2022-11-10T01:15:44.662Z,87.5
2022-11-10T01:20:49.358Z,87.5
2022-11-10T01:25:53.899Z,88
2022-11-10T01:30:58.409Z,87.9
2022-11-10T01:36:01.994Z,87.9
2022-11-10T01:41:06.517Z,87.8
2022-11-10T01:46:11.121Z,87.6
2022-11-10T01:51:14.614Z,87.7
2022-11-10T01:56:19.119Z,87.9
2022-11-10T02:01:23.689Z,87.9
2022-11-10T02:06:28.289Z,88
2022-11-10T02:11:31.703Z,88
2022-11-10T02:16:36.250Z,88
2022-11-10T02:21:40.824Z,88.3
2022-11-10T02:26:44.351Z,88.5
2022-11-10T02:31:48.888Z,88.6
2022-11-10T02:36:53.457Z,89.1
2022-11-10T02:41:56.962Z,89.2
2022-11-10T02:47:01.534Z,89.2
2022-11-10T02:52:06.047Z,89.4
2022-11-10T02:57:09.587Z,89.5
2022-11-10T03:02:14.091Z,89.5
2022-11-10T03:07:18.649Z,89.7
2022-11-10T03:12:23.165Z,90
2022-11-10T03:17:26.727Z,90.3
2022-11-10T03:22:31.276Z,90.5
2022-11-10T03:27:35.806Z,90.8
2022-11-10T03:32:39.371Z,90.8
2022-11-10T03:37:43.919Z,90.9
2022-11-10T03:42:48.442Z,91
2022-11-10T03:47:51.990Z,91.2
2022-11-10T03:52:56.504Z,90.8
2022-11-10T03:58:01.010Z,90.7
2022-11-10T04:03:04.574Z,90.7
2022-11-10T04:08:09.174Z,90.7
2022-11-10T04:13:13.640Z,90.9
2022-11-10T04:18:18.154Z,91
2022-11-10T04:23:22.157Z,90.8
2022-11-10T04:28:26.273Z,91
2022-11-10T04:33:30.805Z,91
2022-11-10T04:38:34.417Z,91
2022-11-10T04:43:38.862Z,90.8
2022-11-10T04:48:43.419Z,91
2022-11-10T04:53:47.018Z,91.2
2022-11-10T04:58:51.492Z,91.3
2022-11-10T05:03:55.065Z,91.3
2022-11-10T05:08:59.646Z,91.5
2022-11-10T05:14:04.105Z,91.4
2022-11-10T05:19:07.684Z,91.6
2022-11-10T05:24:12.215Z,91.6
2022-11-10T05:29:16.759Z,91.5
2022-11-10T05:34:20.281Z,91.7
2022-11-10T05:39:24.852Z,91.8
2022-11-10T05:44:29.358Z,91.8
2022-11-10T05:49:32.877Z,91.7
2022-11-10T05:54:37.498Z,91.8
2022-11-10T05:59:41.975Z,91.9
2022-11-10T06:04:46.505Z,91.6
2022-11-10T06:09:50.093Z,92
2022-11-10T06:14:54.600Z,92.1
2022-11-10T06:19:59.152Z,91.9
2022-11-10T06:25:02.687Z,91.7
2022-11-10T06:30:07.242Z,92
2022-11-10T06:35:11.738Z,92.4
2022-11-10T06:40:15.337Z,92.7
2022-11-10T06:45:19.820Z,92.4
2022-11-10T06:50:24.373Z,92.3
2022-11-10T06:55:27.934Z,92.4
2022-11-10T07:00:32.429Z,92.3
2022-11-10T07:05:36.977Z,91.7
2022-11-10T07:10:41.514Z,90.9
2022-11-10T07:15:45.078Z,90.7
2022-11-10T07:20:49.601Z,90.6
2022-11-10T07:25:54.159Z,90.1
2022-11-10T07:30:57.663Z,89.4
2022-11-10T07:36:02.213Z,89.1
2022-11-10T07:41:06.783Z,88.2
2022-11-10T07:46:10.293Z,88.8
2022-11-10T07:51:14.810Z,88.9
2022-11-10T07:56:19.371Z,88.8
2022-11-10T08:01:22.946Z,88.8
2022-11-10T08:06:29.224Z,89
2022-11-10T08:11:31.970Z,88
2022-11-10T08:16:36.515Z,88
2022-11-10T08:21:41.153Z,88
2022-11-10T08:26:45.741Z,88.6
2022-11-10T08:31:50.219Z,87.6
2022-11-10T08:36:53.780Z,87.5
2022-11-10T08:41:58.385Z,87.8
2022-11-10T08:47:02.824Z,87
2022-11-10T08:52:06.429Z,87.6
2022-11-10T08:57:10.940Z,87.2
2022-11-10T09:02:15.464Z,87.7
2022-11-10T09:07:19.086Z,86.8
2022-11-10T09:12:23.563Z,85.8
2022-11-10T09:17:27.100Z,84.1
2022-11-10T09:22:31.697Z,82.3
2022-11-10T09:27:36.233Z,83
2022-11-10T09:32:39.766Z,81
2022-11-10T09:37:44.329Z,82.6
2022-11-10T09:42:48.840Z,80.8
2022-11-10T09:47:59.610Z,81.4
2022-11-10T09:52:56.937Z,81.6
2022-11-10T09:58:01.474Z,81.7
2022-11-10T10:03:05.992Z,80.5
2022-11-10T10:08:09.531Z,80.2
2022-11-10T10:13:14.085Z,80.3
2022-11-10T10:18:18.630Z,79.9
2022-11-10T10:23:30.637Z,79.7
2022-11-10T10:28:26.748Z,79.2
2022-11-10T10:33:31.241Z,78.1
2022-11-10T10:38:35.889Z,78.2
2022-11-10T10:43:40.439Z,75.2
2022-11-10T10:48:50.439Z,75.5
2022-11-10T10:53:48.579Z,76
2022-11-10T10:58:53.121Z,75.2
2022-11-10T11:03:57.620Z,76.3
2022-11-10T11:09:02.143Z,72.7
2022-11-10T11:14:05.741Z,75
2022-11-10T11:19:10.489Z,74.1
2022-11-10T11:24:14.797Z,73.5
2022-11-10T11:29:18.386Z,74.2
2022-11-10T11:34:22.862Z,73.9
2022-11-10T11:39:27.432Z,73.5
2022-11-10T11:44:30.992Z,73.7
2022-11-10T11:49:35.528Z,72.2
2022-11-10T11:54:40.042Z,70.8
2022-11-10T11:59:43.617Z,72.8
2022-11-10T12:04:48.133Z,71.9
2022-11-10T12:09:52.752Z,71.2
2022-11-10T12:14:57.239Z,71.7
2022-11-10T12:20:00.738Z,72.9
2022-11-10T12:25:05.362Z,72.1
2022-11-10T12:30:09.841Z,72.1
2022-11-10T12:35:13.384Z,71.9
2022-11-10T12:40:17.946Z,69.3
2022-11-10T12:45:22.479Z,70.9
2022-11-10T12:50:26.012Z,71
2022-11-10T12:55:30.559Z,71.2
2022-11-10T13:00:35.072Z,69.5
2022-11-10T13:05:38.627Z,70.5
2022-11-10T13:10:43.137Z,73.5
2022-11-10T13:15:47.737Z,73
2022-11-10T13:20:52.264Z,73.9
2022-11-10T13:25:55.798Z,72.8
2022-11-10T13:30:59.376Z,72.4
2022-11-10T13:36:03.886Z,73
2022-11-10T13:41:08.417Z,73.9
2022-11-10T13:46:11.994Z,73.3
2022-11-10T13:51:16.475Z,73.5
2022-11-10T13:56:21.013Z,75.6
2022-11-10T14:01:25.606Z,74.3
2022-11-10T14:06:29.125Z,75.1
2022-11-10T14:11:33.639Z,74.8
2022-11-10T14:16:38.211Z,73.8
2022-11-10T14:21:41.740Z,76
2022-11-10T14:26:46.261Z,75
2022-11-10T14:31:50.895Z,75.2
2022-11-10T14:36:54.356Z,74.9
2022-11-10T14:41:58.884Z,76.5
2022-11-10T14:47:03.562Z,74.9
2022-11-10T14:52:06.964Z,75.3
2022-11-10T14:57:11.478Z,75.7
2022-11-10T15:02:16.145Z,78.4
2022-11-10T15:07:20.635Z,78.7
2022-11-10T15:12:24.279Z,79.5
2022-11-10T15:17:28.802Z,80.4
2022-11-10T15:22:33.170Z,81
2022-11-10T15:27:36.733Z,81.3
2022-11-10T15:32:41.386Z,81.6
2022-11-10T15:37:45.834Z,82
2022-11-10T15:42:49.379Z,82.4
2022-11-10T15:47:53.990Z,82.9
2022-11-10T15:52:58.426Z,83.3
2022-11-10T15:58:02.066Z,83.6
2022-11-10T16:03:06.651Z,83.6
2022-11-10T16:08:11.033Z,83.7
2022-11-10T16:13:15.594Z,83.9
2022-11-10T16:18:19.384Z,84.3
2022-11-10T16:23:23.677Z,84.9
2022-11-10T16:28:28.203Z,85.1
2022-11-10T16:33:31.847Z,85.1
2022-11-10T16:38:36.272Z,85.4
2022-11-10T16:43:40.801Z,85.7
2022-11-10T16:48:44.460Z,85.6
2022-11-10T16:53:48.908Z,85.8
2022-11-10T16:58:53.453Z,86
2022-11-10T17:03:57.116Z,86.1
2022-11-10T17:09:01.558Z,85.8
2022-11-10T17:14:06.058Z,86
2022-11-10T17:19:11.120Z,86.2
2022-11-10T17:24:14.272Z,86.5
2022-11-10T17:29:18.695Z,86
2022-11-10T17:34:23.355Z,86.4
2022-11-10T17:39:26.765Z,86.2
2022-11-10T17:44:30.358Z,86.3
2022-11-10T17:49:34.998Z,86.8
2022-11-10T17:54:39.398Z,86.9
2022-11-10T17:59:43.935Z,87
2022-11-10T18:04:47.614Z,87.6
2022-11-10T18:09:52.006Z,88.3
2022-11-10T18:14:56.593Z,88.7
2022-11-10T18:20:00.276Z,89.5
2022-11-10T18:25:04.725Z,89.7
2022-11-10T18:30:09.179Z,89.7
2022-11-10T18:35:12.861Z,90.3
2022-11-10T18:40:17.268Z,91
2022-11-10T18:45:21.791Z,91.4
2022-11-10T18:50:25.563Z,91.7
2022-11-10T18:55:29.882Z,91.6
2022-11-10T19:00:34.414Z,91.7
2022-11-10T19:05:39.068Z,91.8
2022-11-10T19:10:42.505Z,91.9
2022-11-10T19:15:47.047Z,92
2022-11-10T19:20:51.658Z,92
2022-11-10T19:25:55.114Z,92.1
2022-11-10T19:30:59.657Z,92.1
2022-11-10T19:36:04.286Z,92.2
2022-11-10T19:41:07.726Z,92.3
2022-11-10T19:46:12.264Z,92.7
2022-11-10T19:51:16.919Z,92.9
2022-11-10T19:56:20.343Z,93.1
2022-11-10T20:01:24.928Z,93.4
2022-11-10T20:06:29.535Z,93.7
2022-11-10T20:11:33.947Z,94.2
2022-11-10T20:16:37.481Z,94.4
2022-11-10T20:21:42.176Z,94.5
2022-11-10T20:26:46.557Z,94.6
2022-11-10T20:31:50.095Z,94.7
2022-11-10T20:36:54.764Z,94.9
2022-11-10T20:41:59.158Z,95
2022-11-10T20:47:02.777Z,95.1
2022-11-10T20:52:07.388Z,95.4
2022-11-10T20:57:11.811Z,95.5
2022-11-10T21:02:15.333Z,95.6
2022-11-10T21:07:20.035Z,95.5
2022-11-10T21:12:24.445Z,95.7
2022-11-10T21:17:28.961Z,95.6
2022-11-10T21:22:32.651Z,95.5
2022-11-10T21:27:37.042Z,95.6
2022-11-10T21:32:41.577Z,95.8
2022-11-10T21:37:45.282Z,95.8
2022-11-10T21:42:49.695Z,95.4
2022-11-10T21:47:54.228Z,95.3
2022-11-10T21:52:57.893Z,95.4
2022-11-10T21:58:02.304Z,95.6
2022-11-10T22:03:05.946Z,95.7
2022-11-10T22:08:10.484Z,95.6
2022-11-10T22:13:14.937Z,95.8
2022-11-10T22:18:18.460Z,96
2022-11-10T22:23:23.471Z,96.1
2022-11-10T22:28:27.548Z,96.3
2022-11-10T22:33:31.078Z,96.5
2022-11-10T22:38:35.815Z,96.4
2022-11-10T22:43:40.436Z,96.4
2022-11-10T22:48:43.703Z,96.6
2022-11-10T22:53:48.405Z,97.5
2022-11-10T22:58:58.495Z,97.5
2022-11-10T23:03:57.301Z,97.4
2022-11-10T23:09:01.002Z,97.3
2022-11-10T23:14:05.384Z,97.4
2022-11-10T23:19:09.929Z,97.5
2022-11-10T23:24:13.621Z,97.8
2022-11-10T23:29:18.024Z,98.2
2022-11-10T23:34:22.538Z,98.4
2022-11-10T23:39:26.231Z,98.5
2022-11-10T23:44:30.620Z,98.5
2022-11-10T23:49:35.183Z,98.3
2022-11-10T23:54:38.853Z,98.5
2022-11-10T23:59:43.267Z,98.7
